sensor_id;sensor_type;location;lat;lon;timestamp;temperature;humidity
1123;DHT22;548;48.778;9.252;2023-03-24T00:01:05;14.00;99.90
1123;DHT22;548;48.778;9.252;2023-03-24T00:03:32;13.90;99.90
1123;DHT22;548;48.778;9.252;2023-03-24T00:06:00;13.80;99.90
1123;DHT22;548;48.778;9.252;2023-03-24T00:08:27;13.80;99.90
1123;DHT22;548;48.778;9.252;2023-03-24T00:10:58;13.90;99.90
1123;DHT22;548;48.778;9.252;2023-03-24T00:13:26;14.00;99.90
1123;DHT22;548;48.778;9.252;2023-03-24T00:15:52;14.00;99.90
1123;DHT22;548;48.778;9.252;2023-03-24T00:18:21;14.10;99.90
1123;DHT22;548;48.778;9.252;2023-03-24T00:20:51;14.20;99.90
1123;DHT22;548;48.778;9.252;2023-03-24T00:23:23;14.40;99.90
1123;DHT22;548;48.778;9.252;2023-03-24T00:25:58;14.50;99.90
1123;DHT22;548;48.778;9.252;2023-03-24T00:28:27;14.50;99.90
1123;DHT22;548;48.778;9.252;2023-03-24T00:30:53;14.50;99.90
1123;DHT22;548;48.778;9.252;2023-03-24T00:33:21;14.50;99.90
1123;DHT22;548;48.778;9.252;2023-03-24T00:35:49;14.40;99.90
1123;DHT22;548;48.778;9.252;2023-03-24T00:38:16;14.40;99.90
1123;DHT22;548;48.778;9.252;2023-03-24T00:40:44;14.40;99.90
1123;DHT22;548;48.778;9.252;2023-03-24T00:43:13;14.40;99.90
1123;DHT22;548;48.778;9.252;2023-03-24T00:45:39;14.30;99.90
1123;DHT22;548;48.778;9.252;2023-03-24T00:48:10;14.40;99.90
1123;DHT22;548;48.778;9.252;2023-03-24T00:50:39;14.40;99.90
1123;DHT22;548;48.778;9.252;2023-03-24T00:53:09;14.40;99.90
1123;DHT22;548;48.778;9.252;2023-03-24T00:55:36;14.50;99.90
1123;DHT22;548;48.778;9.252;2023-03-24T00:58:03;14.50;99.90
1123;DHT22;548;48.778;9.252;2023-03-24T01:00:30;14.50;99.90
1123;DHT22;548;48.778;9.252;2023-03-24T01:02:57;14.50;99.90
1123;DHT22;548;48.778;9.252;2023-03-24T01:05:25;14.40;99.90
1123;DHT22;548;48.778;9.252;2023-03-24T01:07:55;14.40;99.90
1123;DHT22;548;48.778;9.252;2023-03-24T01:10:23;14.30;99.90
1123;DHT22;548;48.778;9.252;2023-03-24T01:12:50;14.20;99.90
1123;DHT22;548;48.778;9.252;2023-03-24T01:15:19;14.20;99.90
1123;DHT22;548;48.778;9.252;2023-03-24T01:17:46;14.20;99.90
1123;DHT22;548;48.778;9.252;2023-03-24T01:20:13;14.20;99.90
1123;DHT22;548;48.778;9.252;2023-03-24T01:22:41;14.20;99.90
1123;DHT22;548;48.778;9.252;2023-03-24T01:25:12;14.20;99.90
1123;DHT22;548;48.778;9.252;2023-03-24T01:27:41;14.20;99.90
1123;DHT22;548;48.778;9.252;2023-03-24T01:30:10;14.20;99.90
1123;DHT22;548;48.778;9.252;2023-03-24T01:32:37;14.30;99.90
1123;DHT22;548;48.778;9.252;2023-03-24T01:35:04;14.30;99.90
1123;DHT22;548;48.778;9.252;2023-03-24T01:37:31;14.30;99.90
1123;DHT22;548;48.778;9.252;2023-03-24T01:39:58;14.30;99.90
1123;DHT22;548;48.778;9.252;2023-03-24T01:42:26;14.30;99.90
1123;DHT22;548;48.778;9.252;2023-03-24T01:44:56;14.30;99.90
1123;DHT22;548;48.778;9.252;2023-03-24T01:47:23;14.30;99.90
1123;DHT22;548;48.778;9.252;2023-03-24T01:49:52;14.40;99.90
1123;DHT22;548;48.778;9.252;2023-03-24T01:52:23;14.40;99.90
1123;DHT22;548;48.778;9.252;2023-03-24T01:54:53;14.30;99.90
1123;DHT22;548;48.778;9.252;2023-03-24T01:57:23;14.20;99.90
1123;DHT22;548;48.778;9.252;2023-03-24T01:59:54;14.20;99.90
1123;DHT22;548;48.778;9.252;2023-03-24T02:02:21;14.10;99.90
1123;DHT22;548;48.778;9.252;2023-03-24T02:04:50;14.00;99.90
1123;DHT22;548;48.778;9.252;2023-03-24T02:07:28;13.90;99.90
1123;DHT22;548;48.778;9.252;2023-03-24T02:09:57;13.90;99.90
1123;DHT22;548;48.778;9.252;2023-03-24T02:12:23;13.90;99.90
1123;DHT22;548;48.778;9.252;2023-03-24T02:14:52;13.90;99.90
1123;DHT22;548;48.778;9.252;2023-03-24T02:17:40;13.90;99.90
1123;DHT22;548;48.778;9.252;2023-03-24T02:20:30;13.90;99.90
1123;DHT22;548;48.778;9.252;2023-03-24T02:32:17;13.80;99.90
1123;DHT22;548;48.778;9.252;2023-03-24T02:35:04;13.90;99.90
1123;DHT22;548;48.778;9.252;2023-03-24T02:38:01;13.90;99.90
1123;DHT22;548;48.778;9.252;2023-03-24T02:40:39;13.90;99.90
1123;DHT22;548;48.778;9.252;2023-03-24T02:43:16;13.90;99.90
1123;DHT22;548;48.778;9.252;2023-03-24T02:46:04;13.80;99.90
1123;DHT22;548;48.778;9.252;2023-03-24T02:48:44;13.80;99.90
1123;DHT22;548;48.778;9.252;2023-03-24T02:51:16;13.70;99.90
1123;DHT22;548;48.778;9.252;2023-03-24T02:53:52;13.70;99.90
1123;DHT22;548;48.778;9.252;2023-03-24T02:56:28;13.80;99.90
1123;DHT22;548;48.778;9.252;2023-03-24T02:59:00;13.90;99.90
1123;DHT22;548;48.778;9.252;2023-03-24T03:01:31;13.90;99.90
1123;DHT22;548;48.778;9.252;2023-03-24T03:04:03;14.00;99.90
1123;DHT22;548;48.778;9.252;2023-03-24T03:06:34;14.10;99.90
1123;DHT22;548;48.778;9.252;2023-03-24T03:09:06;14.20;99.90
1123;DHT22;548;48.778;9.252;2023-03-24T03:11:36;14.30;99.90
1123;DHT22;548;48.778;9.252;2023-03-24T03:14:07;14.30;99.90
1123;DHT22;548;48.778;9.252;2023-03-24T03:16:37;14.40;99.90
1123;DHT22;548;48.778;9.252;2023-03-24T03:19:10;14.50;99.90
1123;DHT22;548;48.778;9.252;2023-03-24T03:21:39;14.60;99.90
1123;DHT22;548;48.778;9.252;2023-03-24T03:24:09;14.60;99.90
1123;DHT22;548;48.778;9.252;2023-03-24T03:26:38;14.60;99.90
1123;DHT22;548;48.778;9.252;2023-03-24T03:29:10;14.60;99.90
1123;DHT22;548;48.778;9.252;2023-03-24T03:31:41;14.60;99.90
1123;DHT22;548;48.778;9.252;2023-03-24T03:34:16;14.60;99.90
1123;DHT22;548;48.778;9.252;2023-03-24T03:36:47;14.60;99.90
1123;DHT22;548;48.778;9.252;2023-03-24T03:39:19;14.60;99.90
1123;DHT22;548;48.778;9.252;2023-03-24T03:41:50;14.60;99.90
1123;DHT22;548;48.778;9.252;2023-03-24T03:44:17;14.70;99.90
1123;DHT22;548;48.778;9.252;2023-03-24T03:46:44;14.80;99.90
1123;DHT22;548;48.778;9.252;2023-03-24T03:49:11;14.90;99.90
1123;DHT22;548;48.778;9.252;2023-03-24T03:51:38;14.90;99.90
1123;DHT22;548;48.778;9.252;2023-03-24T03:54:07;14.70;99.90
1123;DHT22;548;48.778;9.252;2023-03-24T03:56:35;14.60;99.90
1123;DHT22;548;48.778;9.252;2023-03-24T03:59:05;14.50;99.90
1123;DHT22;548;48.778;9.252;2023-03-24T04:01:35;14.50;99.90
1123;DHT22;548;48.778;9.252;2023-03-24T04:04:21;14.50;99.90
1123;DHT22;548;48.778;9.252;2023-03-24T04:07:00;14.50;99.90
1123;DHT22;548;48.778;9.252;2023-03-24T04:09:36;14.40;99.90
1123;DHT22;548;48.778;9.252;2023-03-24T04:12:24;14.40;99.90
1123;DHT22;548;48.778;9.252;2023-03-24T04:15:15;14.40;99.90
1123;DHT22;548;48.778;9.252;2023-03-24T04:18:04;14.30;99.90
1123;DHT22;548;48.778;9.252;2023-03-24T04:20:39;14.30;99.90
1123;DHT22;548;48.778;9.252;2023-03-24T04:23:18;14.20;99.90
1123;DHT22;548;48.778;9.252;2023-03-24T04:25:55;14.30;99.90
1123;DHT22;548;48.778;9.252;2023-03-24T04:28:33;14.20;99.90
1123;DHT22;548;48.778;9.252;2023-03-24T04:31:06;14.30;99.90
1123;DHT22;548;48.778;9.252;2023-03-24T04:33:45;14.30;99.90
1123;DHT22;548;48.778;9.252;2023-03-24T04:36:19;14.30;99.90
1123;DHT22;548;48.778;9.252;2023-03-24T04:38:49;14.50;99.90
1123;DHT22;548;48.778;9.252;2023-03-24T04:41:20;14.60;99.90
1123;DHT22;548;48.778;9.252;2023-03-24T04:43:51;14.70;99.90
1123;DHT22;548;48.778;9.252;2023-03-24T04:46:20;14.90;99.90
1123;DHT22;548;48.778;9.252;2023-03-24T04:48:47;15.00;99.90
1123;DHT22;548;48.778;9.252;2023-03-24T04:51:15;14.90;99.90
1123;DHT22;548;48.778;9.252;2023-03-24T04:53:43;14.60;99.90
1123;DHT22;548;48.778;9.252;2023-03-24T04:56:24;14.60;99.90
1123;DHT22;548;48.778;9.252;2023-03-24T04:58:52;14.60;99.90
1123;DHT22;548;48.778;9.252;2023-03-24T05:01:20;14.50;99.90
1123;DHT22;548;48.778;9.252;2023-03-24T05:03:47;14.40;99.90
1123;DHT22;548;48.778;9.252;2023-03-24T05:06:14;14.60;99.90
1123;DHT22;548;48.778;9.252;2023-03-24T05:08:41;14.70;99.90
1123;DHT22;548;48.778;9.252;2023-03-24T05:11:07;15.10;99.90
1123;DHT22;548;48.778;9.252;2023-03-24T05:13:34;15.50;99.90
1123;DHT22;548;48.778;9.252;2023-03-24T05:16:01;15.80;99.90
1123;DHT22;548;48.778;9.252;2023-03-24T05:18:29;16.00;99.90
1123;DHT22;548;48.778;9.252;2023-03-24T05:20:56;16.10;99.90
1123;DHT22;548;48.778;9.252;2023-03-24T05:23:22;16.20;99.90
1123;DHT22;548;48.778;9.252;2023-03-24T05:25:49;16.30;99.90
1123;DHT22;548;48.778;9.252;2023-03-24T05:28:16;16.30;99.90
1123;DHT22;548;48.778;9.252;2023-03-24T05:30:42;16.50;99.90
1123;DHT22;548;48.778;9.252;2023-03-24T05:33:09;16.50;99.90
1123;DHT22;548;48.778;9.252;2023-03-24T05:35:37;16.50;99.90
1123;DHT22;548;48.778;9.252;2023-03-24T05:38:04;16.40;99.90
1123;DHT22;548;48.778;9.252;2023-03-24T05:40:30;16.30;99.90
1123;DHT22;548;48.778;9.252;2023-03-24T05:42:57;16.00;99.90
1123;DHT22;548;48.778;9.252;2023-03-24T05:45:24;15.80;99.90
1123;DHT22;548;48.778;9.252;2023-03-24T05:47:50;15.50;99.90
1123;DHT22;548;48.778;9.252;2023-03-24T05:50:17;15.30;99.90
1123;DHT22;548;48.778;9.252;2023-03-24T05:52:45;15.10;99.90
1123;DHT22;548;48.778;9.252;2023-03-24T05:55:12;15.00;99.90
1123;DHT22;548;48.778;9.252;2023-03-24T05:57:40;14.90;99.90
1123;DHT22;548;48.778;9.252;2023-03-24T06:00:09;14.90;99.90
1123;DHT22;548;48.778;9.252;2023-03-24T06:02:41;14.80;99.90
1123;DHT22;548;48.778;9.252;2023-03-24T06:05:09;14.70;99.90
1123;DHT22;548;48.778;9.252;2023-03-24T06:07:36;14.60;99.90
1123;DHT22;548;48.778;9.252;2023-03-24T06:10:05;14.60;99.90
1123;DHT22;548;48.778;9.252;2023-03-24T06:12:32;14.50;99.90
1123;DHT22;548;48.778;9.252;2023-03-24T06:14:59;14.40;99.90
1123;DHT22;548;48.778;9.252;2023-03-24T06:17:27;14.40;99.90
1123;DHT22;548;48.778;9.252;2023-03-24T06:19:54;14.40;99.90
1123;DHT22;548;48.778;9.252;2023-03-24T06:22:27;14.40;99.90
1123;DHT22;548;48.778;9.252;2023-03-24T06:24:55;14.30;99.90
1123;DHT22;548;48.778;9.252;2023-03-24T06:27:25;14.40;99.90
1123;DHT22;548;48.778;9.252;2023-03-24T06:29:54;14.40;99.90
1123;DHT22;548;48.778;9.252;2023-03-24T06:32:21;14.40;99.90
1123;DHT22;548;48.778;9.252;2023-03-24T06:34:48;14.40;99.90
1123;DHT22;548;48.778;9.252;2023-03-24T06:37:15;14.40;99.90
1123;DHT22;548;48.778;9.252;2023-03-24T06:39:42;14.50;99.90
1123;DHT22;548;48.778;9.252;2023-03-24T06:42:08;14.60;99.90
1123;DHT22;548;48.778;9.252;2023-03-24T06:44:36;14.70;99.90
1123;DHT22;548;48.778;9.252;2023-03-24T06:47:03;14.80;99.90
1123;DHT22;548;48.778;9.252;2023-03-24T06:49:30;14.80;99.90
1123;DHT22;548;48.778;9.252;2023-03-24T06:51:59;14.80;99.90
1123;DHT22;548;48.778;9.252;2023-03-24T06:54:26;14.80;99.90
1123;DHT22;548;48.778;9.252;2023-03-24T06:56:53;14.80;99.90
1123;DHT22;548;48.778;9.252;2023-03-24T06:59:21;14.80;99.90
1123;DHT22;548;48.778;9.252;2023-03-24T07:01:50;14.80;99.90
1123;DHT22;548;48.778;9.252;2023-03-24T07:04:17;14.80;99.90
1123;DHT22;548;48.778;9.252;2023-03-24T07:06:44;14.80;99.90
1123;DHT22;548;48.778;9.252;2023-03-24T07:09:12;14.80;99.90
1123;DHT22;548;48.778;9.252;2023-03-24T07:11:38;14.70;99.90
1123;DHT22;548;48.778;9.252;2023-03-24T07:14:05;14.70;99.90
1123;DHT22;548;48.778;9.252;2023-03-24T07:16:32;14.70;99.90
1123;DHT22;548;48.778;9.252;2023-03-24T07:19:00;14.60;99.90
1123;DHT22;548;48.778;9.252;2023-03-24T07:21:27;14.60;99.90
1123;DHT22;548;48.778;9.252;2023-03-24T07:23:54;14.50;99.90
1123;DHT22;548;48.778;9.252;2023-03-24T07:26:20;14.30;99.90
1123;DHT22;548;48.778;9.252;2023-03-24T07:28:48;14.10;99.90
1123;DHT22;548;48.778;9.252;2023-03-24T07:31:15;13.90;99.90
1123;DHT22;548;48.778;9.252;2023-03-24T07:33:41;13.80;99.90
1123;DHT22;548;48.778;9.252;2023-03-24T07:36:10;13.80;99.90
1123;DHT22;548;48.778;9.252;2023-03-24T07:38:36;13.70;99.90
1123;DHT22;548;48.778;9.252;2023-03-24T07:41:03;13.60;99.90
1123;DHT22;548;48.778;9.252;2023-03-24T07:43:30;13.60;99.90
1123;DHT22;548;48.778;9.252;2023-03-24T07:45:56;13.50;99.90
1123;DHT22;548;48.778;9.252;2023-03-24T07:48:23;13.50;99.90
1123;DHT22;548;48.778;9.252;2023-03-24T07:50:51;13.50;99.90
1123;DHT22;548;48.778;9.252;2023-03-24T07:53:20;13.50;99.90
1123;DHT22;548;48.778;9.252;2023-03-24T07:55:46;13.40;99.90
1123;DHT22;548;48.778;9.252;2023-03-24T07:58:13;13.50;99.90
1123;DHT22;548;48.778;9.252;2023-03-24T08:00:40;13.40;99.90
1123;DHT22;548;48.778;9.252;2023-03-24T08:03:10;13.50;99.90
1123;DHT22;548;48.778;9.252;2023-03-24T08:05:39;13.40;99.90
1123;DHT22;548;48.778;9.252;2023-03-24T08:08:06;13.50;99.90
1123;DHT22;548;48.778;9.252;2023-03-24T08:10:34;13.40;99.90
1123;DHT22;548;48.778;9.252;2023-03-24T08:13:01;13.50;99.90
1123;DHT22;548;48.778;9.252;2023-03-24T08:15:28;13.40;99.90
1123;DHT22;548;48.778;9.252;2023-03-24T08:17:54;13.40;99.90
1123;DHT22;548;48.778;9.252;2023-03-24T08:20:21;13.50;99.90
1123;DHT22;548;48.778;9.252;2023-03-24T08:22:49;13.50;99.90
1123;DHT22;548;48.778;9.252;2023-03-24T08:25:20;13.50;99.90
1123;DHT22;548;48.778;9.252;2023-03-24T08:27:48;13.50;99.90
1123;DHT22;548;48.778;9.252;2023-03-24T08:30:16;13.60;99.90
1123;DHT22;548;48.778;9.252;2023-03-24T08:32:45;13.60;99.90
1123;DHT22;548;48.778;9.252;2023-03-24T08:35:12;13.50;99.90
1123;DHT22;548;48.778;9.252;2023-03-24T08:37:40;13.60;99.90
1123;DHT22;548;48.778;9.252;2023-03-24T08:40:08;13.60;99.90
1123;DHT22;548;48.778;9.252;2023-03-24T08:42:39;13.60;99.90
1123;DHT22;548;48.778;9.252;2023-03-24T08:45:10;13.60;99.90
1123;DHT22;548;48.778;9.252;2023-03-24T08:47:38;13.70;99.90
1123;DHT22;548;48.778;9.252;2023-03-24T08:50:07;13.70;99.90
1123;DHT22;548;48.778;9.252;2023-03-24T08:52:34;13.70;99.90
1123;DHT22;548;48.778;9.252;2023-03-24T08:55:01;13.70;99.90
1123;DHT22;548;48.778;9.252;2023-03-24T08:57:30;13.80;99.90
1123;DHT22;548;48.778;9.252;2023-03-24T08:59:56;14.00;99.90
1123;DHT22;548;48.778;9.252;2023-03-24T09:02:24;14.10;99.90
1123;DHT22;548;48.778;9.252;2023-03-24T09:04:51;14.20;99.90
1123;DHT22;548;48.778;9.252;2023-03-24T09:07:20;14.40;99.90
1123;DHT22;548;48.778;9.252;2023-03-24T09:09:47;14.50;99.90
1123;DHT22;548;48.778;9.252;2023-03-24T09:12:14;14.70;99.90
1123;DHT22;548;48.778;9.252;2023-03-24T09:14:40;14.80;99.90
1123;DHT22;548;48.778;9.252;2023-03-24T09:17:07;14.90;99.90
1123;DHT22;548;48.778;9.252;2023-03-24T09:19:35;14.90;99.90
1123;DHT22;548;48.778;9.252;2023-03-24T09:22:02;14.90;99.90
1123;DHT22;548;48.778;9.252;2023-03-24T09:24:29;15.00;99.90
1123;DHT22;548;48.778;9.252;2023-03-24T09:26:55;15.10;99.90
1123;DHT22;548;48.778;9.252;2023-03-24T09:29:22;15.10;99.90
1123;DHT22;548;48.778;9.252;2023-03-24T09:31:49;15.40;99.90
1123;DHT22;548;48.778;9.252;2023-03-24T09:34:18;15.50;99.90
1123;DHT22;548;48.778;9.252;2023-03-24T09:36:46;15.80;99.90
1123;DHT22;548;48.778;9.252;2023-03-24T09:39:13;15.90;99.90
1123;DHT22;548;48.778;9.252;2023-03-24T09:41:42;15.90;99.90
1123;DHT22;548;48.778;9.252;2023-03-24T09:44:14;15.90;99.90
1123;DHT22;548;48.778;9.252;2023-03-24T09:46:49;15.90;99.90
1123;DHT22;548;48.778;9.252;2023-03-24T09:49:21;16.10;99.90
1123;DHT22;548;48.778;9.252;2023-03-24T09:51:53;16.30;99.90
1123;DHT22;548;48.778;9.252;2023-03-24T09:54:25;16.60;99.90
1123;DHT22;548;48.778;9.252;2023-03-24T09:56:54;16.60;99.90
1123;DHT22;548;48.778;9.252;2023-03-24T09:59:31;16.50;99.90
1123;DHT22;548;48.778;9.252;2023-03-24T10:01:58;16.60;99.90
1123;DHT22;548;48.778;9.252;2023-03-24T10:04:26;16.60;99.90
1123;DHT22;548;48.778;9.252;2023-03-24T10:06:59;16.80;99.90
1123;DHT22;548;48.778;9.252;2023-03-24T10:09:28;17.10;99.90
1123;DHT22;548;48.778;9.252;2023-03-24T10:12:13;17.30;99.90
1123;DHT22;548;48.778;9.252;2023-03-24T10:14:50;17.70;99.90
1123;DHT22;548;48.778;9.252;2023-03-24T10:17:24;18.30;99.90
1123;DHT22;548;48.778;9.252;2023-03-24T10:19:58;18.50;99.90
1123;DHT22;548;48.778;9.252;2023-03-24T10:22:31;18.60;99.90
1123;DHT22;548;48.778;9.252;2023-03-24T10:25:05;18.50;99.90
1123;DHT22;548;48.778;9.252;2023-03-24T10:27:39;18.20;99.90
1123;DHT22;548;48.778;9.252;2023-03-24T10:30:14;17.90;99.90
1123;DHT22;548;48.778;9.252;2023-03-24T10:32:42;18.10;99.90
1123;DHT22;548;48.778;9.252;2023-03-24T10:35:15;18.10;99.90
1123;DHT22;548;48.778;9.252;2023-03-24T10:37:45;18.20;99.90
1123;DHT22;548;48.778;9.252;2023-03-24T10:40:14;18.10;99.90
1123;DHT22;548;48.778;9.252;2023-03-24T10:42:44;18.10;99.90
1123;DHT22;548;48.778;9.252;2023-03-24T10:45:11;18.10;99.90
1123;DHT22;548;48.778;9.252;2023-03-24T10:47:39;18.00;99.90
1123;DHT22;548;48.778;9.252;2023-03-24T10:50:08;17.70;99.90
1123;DHT22;548;48.778;9.252;2023-03-24T10:52:38;17.80;99.90
1123;DHT22;548;48.778;9.252;2023-03-24T10:55:14;17.90;99.90
1123;DHT22;548;48.778;9.252;2023-03-24T10:57:42;18.10;99.90
1123;DHT22;548;48.778;9.252;2023-03-24T11:00:16;18.20;99.90
1123;DHT22;548;48.778;9.252;2023-03-24T11:02:53;18.30;99.90
1123;DHT22;548;48.778;9.252;2023-03-24T11:05:21;18.60;99.90
1123;DHT22;548;48.778;9.252;2023-03-24T11:07:57;18.80;99.90
1123;DHT22;548;48.778;9.252;2023-03-24T11:10:26;18.60;99.90
1123;DHT22;548;48.778;9.252;2023-03-24T11:12:59;18.70;99.90
1123;DHT22;548;48.778;9.252;2023-03-24T11:15:28;18.80;99.90
1123;DHT22;548;48.778;9.252;2023-03-24T11:17:56;18.70;99.90
1123;DHT22;548;48.778;9.252;2023-03-24T11:20:26;19.10;99.90
1123;DHT22;548;48.778;9.252;2023-03-24T11:22:56;19.60;99.90
1123;DHT22;548;48.778;9.252;2023-03-24T11:25:30;20.50;99.90
1123;DHT22;548;48.778;9.252;2023-03-24T11:27:59;20.30;98.80
1123;DHT22;548;48.778;9.252;2023-03-24T11:30:33;20.20;99.70
1123;DHT22;548;48.778;9.252;2023-03-24T11:33:01;20.20;98.90
1123;DHT22;548;48.778;9.252;2023-03-24T11:35:29;20.30;98.60
1123;DHT22;548;48.778;9.252;2023-03-24T11:38:03;20.10;99.20
1123;DHT22;548;48.778;9.252;2023-03-24T11:40:33;20.40;97.70
1123;DHT22;548;48.778;9.252;2023-03-24T11:43:01;20.10;97.90
1123;DHT22;548;48.778;9.252;2023-03-24T11:45:34;19.80;98.20
1123;DHT22;548;48.778;9.252;2023-03-24T11:48:09;19.50;98.70
1123;DHT22;548;48.778;9.252;2023-03-24T11:50:38;19.40;99.50
1123;DHT22;548;48.778;9.252;2023-03-24T11:53:10;19.00;99.90
1123;DHT22;548;48.778;9.252;2023-03-24T11:55:43;18.90;99.70
1123;DHT22;548;48.778;9.252;2023-03-24T11:58:18;18.70;99.90
1123;DHT22;548;48.778;9.252;2023-03-24T12:00:52;18.70;99.90
1123;DHT22;548;48.778;9.252;2023-03-24T12:06:32;18.50;99.60
1123;DHT22;548;48.778;9.252;2023-03-24T12:09:09;18.40;99.80
1123;DHT22;548;48.778;9.252;2023-03-24T12:11:58;18.50;99.50
1123;DHT22;548;48.778;9.252;2023-03-24T12:14:34;18.40;98.90
1123;DHT22;548;48.778;9.252;2023-03-24T12:17:05;18.40;98.80
1123;DHT22;548;48.778;9.252;2023-03-24T12:20:06;18.80;98.50
1123;DHT22;548;48.778;9.252;2023-03-24T12:22:47;18.60;97.90
1123;DHT22;548;48.778;9.252;2023-03-24T12:25:37;18.60;98.00
1123;DHT22;548;48.778;9.252;2023-03-24T12:28:15;18.80;97.30
1123;DHT22;548;48.778;9.252;2023-03-24T12:30:53;18.50;97.60
1123;DHT22;548;48.778;9.252;2023-03-24T12:33:33;18.60;96.80
1123;DHT22;548;48.778;9.252;2023-03-24T12:36:17;18.40;97.20
1123;DHT22;548;48.778;9.252;2023-03-24T12:38:56;18.40;97.60
1123;DHT22;548;48.778;9.252;2023-03-24T12:41:39;18.50;97.60
1123;DHT22;548;48.778;9.252;2023-03-24T12:44:20;18.40;97.60
1123;DHT22;548;48.778;9.252;2023-03-24T12:46:53;18.60;97.80
1123;DHT22;548;48.778;9.252;2023-03-24T12:52:29;18.70;97.50
1123;DHT22;548;48.778;9.252;2023-03-24T12:55:02;18.90;97.50
1123;DHT22;548;48.778;9.252;2023-03-24T12:57:34;18.80;97.30
1123;DHT22;548;48.778;9.252;2023-03-24T13:00:08;18.70;97.80
1123;DHT22;548;48.778;9.252;2023-03-24T13:02:40;18.70;97.80
1123;DHT22;548;48.778;9.252;2023-03-24T13:05:14;18.80;97.80
1123;DHT22;548;48.778;9.252;2023-03-24T13:07:42;18.50;98.30
1123;DHT22;548;48.778;9.252;2023-03-24T13:10:13;18.10;99.00
1123;DHT22;548;48.778;9.252;2023-03-24T13:12:46;17.90;99.70
1123;DHT22;548;48.778;9.252;2023-03-24T13:15:19;18.00;99.90
1123;DHT22;548;48.778;9.252;2023-03-24T13:17:50;18.20;99.70
1123;DHT22;548;48.778;9.252;2023-03-24T13:20:23;18.40;99.30
1123;DHT22;548;48.778;9.252;2023-03-24T13:22:51;18.30;99.80
1123;DHT22;548;48.778;9.252;2023-03-24T13:25:24;18.30;99.70
1123;DHT22;548;48.778;9.252;2023-03-24T13:27:57;18.00;99.90
1123;DHT22;548;48.778;9.252;2023-03-24T13:30:31;17.70;99.90
1123;DHT22;548;48.778;9.252;2023-03-24T13:33:03;17.80;99.90
1123;DHT22;548;48.778;9.252;2023-03-24T13:35:47;17.70;99.90
1123;DHT22;548;48.778;9.252;2023-03-24T13:38:19;17.40;99.90
1123;DHT22;548;48.778;9.252;2023-03-24T13:40:51;17.40;99.90
1123;DHT22;548;48.778;9.252;2023-03-24T13:43:21;17.10;99.90
1123;DHT22;548;48.778;9.252;2023-03-24T13:45:51;17.20;99.90
1123;DHT22;548;48.778;9.252;2023-03-24T13:48:31;17.20;99.90
1123;DHT22;548;48.778;9.252;2023-03-24T13:51:03;17.30;99.90
1123;DHT22;548;48.778;9.252;2023-03-24T13:53:36;17.20;99.90
1123;DHT22;548;48.778;9.252;2023-03-24T13:56:04;17.10;99.90
1123;DHT22;548;48.778;9.252;2023-03-24T13:59:05;17.00;99.90
1123;DHT22;548;48.778;9.252;2023-03-24T14:01:35;17.00;99.90
1123;DHT22;548;48.778;9.252;2023-03-24T14:04:25;16.90;99.90
1123;DHT22;548;48.778;9.252;2023-03-24T14:06:53;16.60;99.90
1123;DHT22;548;48.778;9.252;2023-03-24T14:09:22;16.40;99.90
1123;DHT22;548;48.778;9.252;2023-03-24T14:12:07;16.30;99.90
1123;DHT22;548;48.778;9.252;2023-03-24T14:14:35;16.10;99.90
1123;DHT22;548;48.778;9.252;2023-03-24T14:17:23;15.90;99.90
1123;DHT22;548;48.778;9.252;2023-03-24T14:20:12;15.80;99.90
1123;DHT22;548;48.778;9.252;2023-03-24T14:22:43;15.60;99.90
1123;DHT22;548;48.778;9.252;2023-03-24T14:25:21;15.30;99.90
1123;DHT22;548;48.778;9.252;2023-03-24T14:27:50;15.10;99.90
1123;DHT22;548;48.778;9.252;2023-03-24T14:30:19;15.00;99.90
1123;DHT22;548;48.778;9.252;2023-03-24T14:32:50;14.70;99.90
1123;DHT22;548;48.778;9.252;2023-03-24T14:35:29;14.40;99.90
1123;DHT22;548;48.778;9.252;2023-03-24T14:37:59;13.90;99.90
1123;DHT22;548;48.778;9.252;2023-03-24T14:40:32;13.60;99.90
1123;DHT22;548;48.778;9.252;2023-03-24T14:43:12;13.50;99.90
1123;DHT22;548;48.778;9.252;2023-03-24T14:45:54;13.40;99.90
1123;DHT22;548;48.778;9.252;2023-03-24T14:48:39;13.20;99.90
1123;DHT22;548;48.778;9.252;2023-03-24T14:51:34;13.20;99.90
1123;DHT22;548;48.778;9.252;2023-03-24T14:54:05;13.10;99.90
1123;DHT22;548;48.778;9.252;2023-03-24T14:56:34;13.10;99.90
1123;DHT22;548;48.778;9.252;2023-03-24T14:59:04;12.90;99.90
1123;DHT22;548;48.778;9.252;2023-03-24T15:01:37;12.80;99.90
1123;DHT22;548;48.778;9.252;2023-03-24T15:04:11;12.80;99.90
1123;DHT22;548;48.778;9.252;2023-03-24T15:06:44;12.70;99.90
1123;DHT22;548;48.778;9.252;2023-03-24T15:09:13;12.70;99.90
1123;DHT22;548;48.778;9.252;2023-03-24T15:11:40;12.60;99.90
1123;DHT22;548;48.778;9.252;2023-03-24T15:14:17;12.60;99.90
1123;DHT22;548;48.778;9.252;2023-03-24T15:16:51;12.50;99.90
1123;DHT22;548;48.778;9.252;2023-03-24T15:19:23;12.60;99.90
1123;DHT22;548;48.778;9.252;2023-03-24T15:21:56;12.60;99.90
1123;DHT22;548;48.778;9.252;2023-03-24T15:24:27;12.60;99.90
1123;DHT22;548;48.778;9.252;2023-03-24T15:27:09;12.50;99.90
1123;DHT22;548;48.778;9.252;2023-03-24T15:29:40;12.50;99.90
1123;DHT22;548;48.778;9.252;2023-03-24T15:32:14;12.60;99.90
1123;DHT22;548;48.778;9.252;2023-03-24T15:34:46;12.60;99.90
1123;DHT22;548;48.778;9.252;2023-03-24T15:37:20;12.70;99.90
1123;DHT22;548;48.778;9.252;2023-03-24T15:39:49;12.70;99.90
1123;DHT22;548;48.778;9.252;2023-03-24T15:42:17;12.60;99.90
1123;DHT22;548;48.778;9.252;2023-03-24T15:44:45;12.70;99.90
1123;DHT22;548;48.778;9.252;2023-03-24T15:47:14;12.80;99.90
1123;DHT22;548;48.778;9.252;2023-03-24T15:49:51;12.80;99.90
1123;DHT22;548;48.778;9.252;2023-03-24T15:52:26;12.70;99.90
1123;DHT22;548;48.778;9.252;2023-03-24T15:54:55;12.70;99.90
1123;DHT22;548;48.778;9.252;2023-03-24T15:57:24;12.70;99.90
1123;DHT22;548;48.778;9.252;2023-03-24T16:00:03;12.70;99.90
1123;DHT22;548;48.778;9.252;2023-03-24T16:02:35;12.60;99.90
1123;DHT22;548;48.778;9.252;2023-03-24T16:05:13;12.60;99.90
1123;DHT22;548;48.778;9.252;2023-03-24T16:07:44;12.70;99.90
1123;DHT22;548;48.778;9.252;2023-03-24T16:10:26;12.70;99.90
1123;DHT22;548;48.778;9.252;2023-03-24T16:12:57;12.70;99.90
1123;DHT22;548;48.778;9.252;2023-03-24T16:15:24;12.80;99.90
1123;DHT22;548;48.778;9.252;2023-03-24T16:17:51;12.70;99.90
1123;DHT22;548;48.778;9.252;2023-03-24T16:20:20;12.70;99.90
1123;DHT22;548;48.778;9.252;2023-03-24T16:22:47;12.70;99.90
1123;DHT22;548;48.778;9.252;2023-03-24T16:25:14;12.70;99.90
1123;DHT22;548;48.778;9.252;2023-03-24T16:27:42;12.70;99.90
1123;DHT22;548;48.778;9.252;2023-03-24T16:30:16;12.70;99.90
1123;DHT22;548;48.778;9.252;2023-03-24T16:32:45;12.70;99.90
1123;DHT22;548;48.778;9.252;2023-03-24T16:35:12;12.70;99.90
1123;DHT22;548;48.778;9.252;2023-03-24T16:37:40;12.80;99.90
1123;DHT22;548;48.778;9.252;2023-03-24T16:40:19;12.80;99.90
1123;DHT22;548;48.778;9.252;2023-03-24T16:42:46;12.90;99.90
1123;DHT22;548;48.778;9.252;2023-03-24T16:45:13;13.00;99.90
1123;DHT22;548;48.778;9.252;2023-03-24T16:47:40;13.10;99.90
1123;DHT22;548;48.778;9.252;2023-03-24T16:50:23;13.10;99.90
1123;DHT22;548;48.778;9.252;2023-03-24T16:52:53;13.20;99.90
1123;DHT22;548;48.778;9.252;2023-03-24T16:55:19;13.30;99.90
1123;DHT22;548;48.778;9.252;2023-03-24T16:57:46;13.50;99.90